Harvard, Nebraska
Current Conditions -  °F | °C
As of 8:53 PM on Tuesday 21 Oct 2014 (Local Time) from KHSI Reporting Station
Clear Clear  
Wind Chill: 64°   Ceiling: Unl
Heat Index: 64°   Visibility: 10mi
Dew Point: 49°   Wind: 12mph
Humidity: 58%   Direction: 140°SE
Pressure: 29.98"   Gusts: NA
Location:  40.62°N, 98.1°W
Report Text: KHSI 220153Z AUTO 14010KT 10SM CLR 18/09 A2998 RMK AO2 SLP148 T01780094
Loading
Personal Weather Stations






























Interactive Weather Map
Tropical Storm Tracking
New forecast layout! Learn more

10-Day Weather Forecast

Advertisements
Track Severe Weather on mobile